Time;durP1;ratioP1;P1;durP2;ratioP2;P2;SDS_P1;SDS_P2;PMS_P1;PMS_P2;Temp;Humidity;BMP_temperature;BMP_pressure;BME280_temperature;BME280_humidity;BME280_pressure;Samples;Min_cycle;Max_cycle;Signal;HPM_P1;HPM_P2
2022/03/10 00:01:13;;;;;;;4.60;2.55;;;11.60;75.60;;;;;;5037696;28;20029;-77
2022/03/10 00:03:38;;;;;;;3.60;2.38;;;11.70;75.50;;;;;;5037711;28;20037;-77
2022/03/10 00:06:04;;;;;;;4.07;2.22;;;11.70;75.40;;;;;;5038017;28;20025;-77
2022/03/10 00:08:30;;;;;;;5.95;3.38;;;11.70;75.50;;;;;;5037472;28;20060;-77
2022/03/10 00:10:55;;;;;;;7.65;2.70;;;11.70;75.40;;;;;;5037812;28;20021;-77
2022/03/10 00:13:21;;;;;;;5.00;2.97;;;11.70;75.30;;;;;;5037242;28;20152;-77
2022/03/10 00:15:47;;;;;;;5.20;2.88;;;11.80;75.30;;;;;;5037337;28;20017;-77
2022/03/10 00:18:12;;;;;;;3.58;1.98;;;11.70;75.50;;;;;;5037383;28;20033;-77
2022/03/10 00:20:38;;;;;;;3.42;2.17;;;11.70;75.10;;;;;;5037326;28;20057;-77
2022/03/10 00:23:04;;;;;;;2.85;2.20;;;11.70;75.30;;;;;;5043316;28;20031;-77
2022/03/10 00:25:32;;;;;;;5.07;2.30;;;11.70;75.40;;;;;;5067942;28;20032;-77
2022/03/10 00:27:58;;;;;;;4.00;2.75;;;11.80;75.50;;;;;;5037049;28;20049;-77
2022/03/10 00:30:24;;;;;;;4.05;2.47;;;11.80;75.20;;;;;;5036902;28;20036;-77
2022/03/10 00:32:52;;;;;;;6.50;2.58;;;11.80;75.10;;;;;;5043016;28;20032;-77
2022/03/10 00:35:23;;;;;;;5.65;2.65;;;11.80;75.00;;;;;;5019493;28;20045;-78
2022/03/10 00:37:49;;;;;;;3.78;2.45;;;11.80;75.00;;;;;;5019665;28;20032;-78
2022/03/10 00:40:16;;;;;;;5.95;2.55;;;11.80;75.00;;;;;;5036829;28;20021;-78
2022/03/10 00:42:43;;;;;;;4.85;2.58;;;11.80;75.10;;;;;;5019557;28;20026;-78
2022/03/10 00:45:10;;;;;;;4.90;2.40;;;11.80;74.90;;;;;;5036280;28;20543;-78
2022/03/10 00:47:36;;;;;;;5.03;2.67;;;11.90;74.60;;;;;;5037253;28;20025;-77
2022/03/10 00:50:03;;;;;;;5.22;2.40;;;11.90;74.60;;;;;;5036685;28;20032;-78
2022/03/10 00:52:28;;;;;;;4.43;2.58;;;11.90;74.90;;;;;;5036642;28;20491;-77
2022/03/10 00:54:54;;;;;;;5.68;2.55;;;11.90;74.80;;;;;;5036507;28;20032;-78
2022/03/10 00:57:20;;;;;;;4.10;2.10;;;11.80;74.70;;;;;;5035547;28;20026;-78
2022/03/10 00:59:46;;;;;;;4.72;2.42;;;11.80;75.10;;;;;;5037009;28;20025;-77
2022/03/10 01:02:11;;;;;;;5.78;2.42;;;11.90;75.00;;;;;;5031135;28;20036;-77
2022/03/10 01:04:37;;;;;;;5.85;2.30;;;11.80;74.90;;;;;;5038245;28;20025;-77
2022/03/10 01:07:03;;;;;;;4.95;2.20;;;11.80;75.30;;;;;;5056402;28;20438;-78
2022/03/10 01:09:29;;;;;;;6.00;2.58;;;11.80;75.30;;;;;;5043898;28;20033;-78
2022/03/10 01:11:54;;;;;;;3.75;2.13;;;11.80;75.50;;;;;;5036269;28;20489;-78
2022/03/10 01:14:20;;;;;;;3.33;2.10;;;11.70;75.90;;;;;;5019250;28;20025;-77
2022/03/10 01:16:46;;;;;;;3.92;2.20;;;11.70;76.00;;;;;;5036645;28;20028;-77
2022/03/10 01:19:12;;;;;;;5.53;2.45;;;11.80;75.90;;;;;;5036844;28;20033;-77
2022/03/10 01:21:37;;;;;;;6.47;2.38;;;11.70;75.90;;;;;;5039936;28;20032;-77
2022/03/10 01:24:03;;;;;;;3.33;2.40;;;11.50;76.60;;;;;;5059922;28;20029;-78
2022/03/10 01:26:29;;;;;;;3.92;2.20;;;11.50;76.60;;;;;;5030050;28;20033;-78
2022/03/10 01:28:55;;;;;;;6.20;2.40;;;11.40;76.90;;;;;;5035047;28;20037;-77
2022/03/10 01:31:20;;;;;;;6.18;2.70;;;11.30;77.00;;;;;;5036653;28;20037;-78
2022/03/10 01:33:46;;;;;;;4.68;2.38;;;11.30;77.10;;;;;;5035899;28;20069;-78
2022/03/10 01:36:12;;;;;;;4.18;2.20;;;11.30;77.30;;;;;;5035980;28;20033;-77
2022/03/10 01:38:39;;;;;;;4.30;2.10;;;11.20;77.50;;;;;;5018406;28;20053;-77
2022/03/10 01:41:09;;;;;;;5.95;2.70;;;11.20;77.30;;;;;;5035672;28;20036;-77
2022/03/10 01:43:57;;;;;;;5.13;2.53;;;11.20;77.30;;;;;;5035772;28;20530;-77
2022/03/10 01:46:24;;;;;;;3.50;2.33;;;11.20;77.60;;;;;;5030988;28;20276;-77
2022/03/10 01:48:49;;;;;;;9.68;2.38;;;11.00;77.80;;;;;;5035787;28;20053;-78
2022/03/10 01:51:16;;;;;;;3.22;2.28;;;11.10;77.70;;;;;;5035851;28;20033;-77
2022/03/10 01:53:42;;;;;;;6.00;2.67;;;11.10;77.70;;;;;;5035667;28;20050;-77
2022/03/10 01:56:09;;;;;;;4.80;2.65;;;11.10;77.60;;;;;;5035892;28;20025;-78
2022/03/10 01:58:36;;;;;;;6.13;2.85;;;11.00;77.70;;;;;;5017974;28;20033;-77
2022/03/10 02:01:02;;;;;;;4.00;2.10;;;10.90;78.00;;;;;;5035304;28;20026;-77
2022/03/10 02:03:28;;;;;;;6.72;3.00;;;11.00;77.90;;;;;;5035879;28;20112;-78
2022/03/10 02:05:54;;;;;;;6.70;2.50;;;11.00;77.80;;;;;;5035682;28;20119;-78
2022/03/10 02:11:06;;;;;;;6.55;3.92;;;11.00;78.10;;;;;;5035593;28;20024;-78
2022/03/10 02:13:32;;;;;;;6.60;2.50;;;10.90;78.10;;;;;;5035148;28;20029;-77
2022/03/10 02:18:42;;;;;;;4.60;2.15;;;10.90;78.10;;;;;;5035264;28;20044;-77
2022/03/10 02:21:08;;;;;;;5.32;2.55;;;10.80;78.10;;;;;;5035656;28;20029;-78
2022/03/10 02:23:33;;;;;;;5.13;2.53;;;10.90;78.10;;;;;;5049205;28;20024;-77
2022/03/10 02:25:59;;;;;;;5.32;2.00;;;10.90;77.60;;;;;;5057878;28;20061;-77
2022/03/10 02:28:26;;;;;;;4.30;2.08;;;10.80;77.80;;;;;;5054770;28;20110;-77
2022/03/10 02:30:53;;;;;;;4.18;2.60;;;10.80;77.90;;;;;;5037223;28;20036;-78
2022/03/10 02:33:18;;;;;;;4.55;2.00;;;10.80;77.80;;;;;;5037984;28;20037;-77
2022/03/10 02:35:44;;;;;;;5.45;2.55;;;10.80;77.70;;;;;;5017137;28;20060;-77
2022/03/10 02:38:18;;;;;;;5.70;2.40;;;10.70;77.90;;;;;;5034935;28;20029;-78
2022/03/10 02:40:45;;;;;;;4.60;2.38;;;10.80;77.80;;;;;;5035052;28;20051;-77
2022/03/10 02:43:10;;;;;;;4.90;2.58;;;10.80;77.60;;;;;;5035367;28;20025;-76
2022/03/10 02:45:36;;;;;;;3.58;2.50;;;10.80;77.50;;;;;;5034850;28;20074;-77
2022/03/10 02:48:02;;;;;;;4.53;2.58;;;10.80;77.30;;;;;;5035338;28;20063;-77
2022/03/10 02:50:29;;;;;;;4.25;2.38;;;10.90;77.00;;;;;;5035225;28;20537;-77
2022/03/10 02:52:54;;;;;;;5.15;2.50;;;10.90;76.70;;;;;;5017379;28;20495;-76
2022/03/10 02:55:20;;;;;;;4.93;2.80;;;11.00;76.60;;;;;;5034962;28;20099;-77
2022/03/10 02:57:46;;;;;;;3.67;2.13;;;11.00;76.60;;;;;;5035298;28;20029;-77
2022/03/10 03:00:14;;;;;;;4.88;2.58;;;11.00;76.40;;;;;;5034792;28;20030;-77
2022/03/10 03:02:40;;;;;;;6.18;2.58;;;11.10;76.30;;;;;;5034928;28;20018;-77
2022/03/10 03:05:16;;;;;;;7.45;2.67;;;11.10;76.00;;;;;;5034796;28;20051;-77
2022/03/10 03:07:43;;;;;;;4.53;2.42;;;11.20;75.90;;;;;;5035175;28;20033;-77
2022/03/10 03:10:10;;;;;;;8.32;2.80;;;11.30;75.60;;;;;;5016782;28;20037;-77
2022/03/10 03:12:48;;;;;;;7.57;2.60;;;11.30;75.40;;;;;;5034486;28;20860;-77
2022/03/10 03:15:14;;;;;;;4.43;2.17;;;11.30;75.40;;;;;;5033380;28;20484;-76
2022/03/10 03:17:40;;;;;;;4.80;3.00;;;11.20;75.50;;;;;;5035160;28;20119;-77
2022/03/10 03:20:07;;;;;;;6.38;2.38;;;11.30;75.50;;;;;;5033283;28;20563;-77
2022/03/10 03:22:32;;;;;;;3.72;2.42;;;11.20;75.60;;;;;;5054359;28;20032;-77
2022/03/10 03:24:58;;;;;;;5.85;2.70;;;11.20;75.70;;;;;;5073154;28;20028;-77
2022/03/10 03:27:24;;;;;;;7.15;3.40;;;11.20;75.90;;;;;;5048381;28;20037;-76
2022/03/10 03:29:49;;;;;;;4.43;2.50;;;11.20;75.90;;;;;;5032789;28;20484;-77
2022/03/10 03:32:15;;;;;;;4.10;2.55;;;11.00;76.10;;;;;;5034499;28;20025;-77
2022/03/10 03:34:41;;;;;;;4.60;2.60;;;11.00;76.40;;;;;;5034987;28;20495;-77
2022/03/10 03:37:07;;;;;;;3.95;2.70;;;11.00;76.50;;;;;;5034472;28;20061;-77
2022/03/10 03:39:33;;;;;;;4.47;2.67;;;10.90;76.70;;;;;;5034574;28;20094;-77
2022/03/10 03:41:58;;;;;;;5.75;2.55;;;10.90;76.90;;;;;;5034404;28;20112;-77
2022/03/10 03:44:24;;;;;;;4.53;3.00;;;10.90;76.80;;;;;;5034880;28;20104;-77
2022/03/10 03:46:50;;;;;;;9.80;2.78;;;10.90;76.90;;;;;;5034159;28;20105;-76
2022/03/10 03:49:15;;;;;;;5.03;2.80;;;10.80;76.90;;;;;;5034272;28;20036;-77
2022/03/10 03:51:41;;;;;;;4.38;2.72;;;10.80;77.10;;;;;;5017407;28;20024;-77
2022/03/10 03:54:07;;;;;;;6.13;2.97;;;10.70;77.30;;;;;;5038330;28;20048;-77
2022/03/10 03:56:37;;;;;;;4.72;2.97;;;10.70;77.40;;;;;;5037869;28;20045;-77
2022/03/10 03:59:03;;;;;;;6.10;3.10;;;10.70;77.40;;;;;;5037997;28;20132;-77
2022/03/10 04:01:29;;;;;;;6.53;3.38;;;10.60;77.60;;;;;;5037901;28;20029;-77
2022/03/10 04:03:55;;;;;;;5.82;3.55;;;10.60;77.80;;;;;;5037652;28;20108;-77
2022/03/10 04:06:21;;;;;;;4.47;3.55;;;10.50;77.70;;;;;;5038039;28;20037;-76
2022/03/10 04:08:47;;;;;;;6.60;3.67;;;10.50;77.90;;;;;;5037573;28;20037;-77
2022/03/10 04:11:13;;;;;;;6.93;3.63;;;10.60;77.90;;;;;;5020538;28;20025;-77
2022/03/10 04:13:39;;;;;;;6.65;3.47;;;10.60;77.60;;;;;;5037583;28;20082;-77
2022/03/10 04:16:06;;;;;;;7.63;3.85;;;10.60;77.50;;;;;;5037460;28;20018;-77
2022/03/10 04:18:32;;;;;;;5.40;3.88;;;10.70;77.50;;;;;;5038068;28;20060;-77
2022/03/10 04:20:59;;;;;;;7.93;3.72;;;10.70;77.50;;;;;;5037741;28;20025;-77
2022/03/10 04:23:28;;;;;;;6.53;4.28;;;10.70;77.60;;;;;;5031147;28;20036;-77
2022/03/10 04:25:54;;;;;;;6.47;4.18;;;10.80;77.20;;;;;;5063686;28;20034;-77
2022/03/10 04:28:22;;;;;;;5.35;3.60;;;10.90;76.90;;;;;;5037222;28;20045;-77
2022/03/10 04:30:48;;;;;;;4.97;3.38;;;10.90;76.50;;;;;;5037286;28;20045;-77
2022/03/10 04:33:15;;;;;;;7.95;3.83;;;10.90;76.60;;;;;;5037089;28;20024;-76
2022/03/10 04:35:40;;;;;;;6.10;3.28;;;10.90;76.60;;;;;;5037254;28;20738;-77
2022/03/10 04:38:07;;;;;;;4.40;3.22;;;10.90;76.30;;;;;;5030490;28;20037;-77
2022/03/10 04:40:32;;;;;;;8.25;3.95;;;10.90;76.50;;;;;;5018958;28;20033;-77
2022/03/10 04:42:58;;;;;;;6.10;3.90;;;10.90;76.60;;;;;;5036804;28;20033;-77
2022/03/10 04:45:24;;;;;;;8.07;4.30;;;10.90;76.60;;;;;;5036980;28;20030;-77
2022/03/10 04:47:49;;;;;;;6.00;3.83;;;10.90;76.50;;;;;;5019370;28;20037;-77
2022/03/10 04:50:18;;;;;;;5.90;3.58;;;10.80;76.60;;;;;;5036832;28;20484;-77
2022/03/10 04:52:44;;;;;;;6.10;3.92;;;10.90;76.40;;;;;;5037044;28;20461;-77
2022/03/10 04:55:12;;;;;;;7.90;3.53;;;10.90;76.40;;;;;;5037108;28;20373;-77
2022/03/10 04:57:38;;;;;;;7.97;3.85;;;10.90;76.60;;;;;;5036737;28;20071;-77
2022/03/10 05:00:08;;;;;;;5.63;3.80;;;10.90;76.40;;;;;;5036285;28;20029;-77
2022/03/10 05:02:35;;;;;;;5.20;3.25;;;10.80;76.60;;;;;;5036644;28;20032;-76
2022/03/10 05:05:02;;;;;;;5.30;3.75;;;10.80;76.60;;;;;;5036505;28;20478;-77
2022/03/10 05:07:27;;;;;;;7.47;3.72;;;10.80;76.70;;;;;;5036432;28;20403;-77
2022/03/10 05:09:53;;;;;;;6.65;3.92;;;10.80;76.80;;;;;;5036468;28;20033;-77
2022/03/10 05:12:19;;;;;;;6.88;4.05;;;10.80;76.80;;;;;;5020537;28;20029;-77
2022/03/10 05:14:45;;;;;;;5.20;3.80;;;10.70;76.90;;;;;;5036331;28;20782;-77
2022/03/10 05:17:10;;;;;;;7.82;4.10;;;10.80;76.80;;;;;;5036384;28;20029;-77
2022/03/10 05:19:36;;;;;;;4.57;3.60;;;10.70;76.70;;;;;;5034929;28;20037;-77
2022/03/10 05:22:03;;;;;;;6.97;3.72;;;10.70;76.80;;;;;;5036753;28;20069;-77
2022/03/10 05:24:28;;;;;;;7.22;4.55;;;10.60;76.90;;;;;;5065184;28;20028;-77
2022/03/10 05:26:54;;;;;;;6.07;4.30;;;10.60;77.10;;;;;;5058725;28;20049;-77
2022/03/10 05:29:20;;;;;;;7.28;3.92;;;10.50;77.00;;;;;;5036142;28;20033;-77
2022/03/10 05:31:45;;;;;;;7.18;4.60;;;10.50;77.00;;;;;;5036067;28;20036;-77
2022/03/10 05:34:11;;;;;;;6.20;4.22;;;10.50;77.00;;;;;;5036479;28;20110;-77
2022/03/10 05:36:37;;;;;;;8.52;5.30;;;10.50;77.00;;;;;;5035940;28;20030;-77
2022/03/10 05:39:04;;;;;;;7.93;4.68;;;10.60;76.80;;;;;;5036211;28;20546;-77
2022/03/10 05:41:32;;;;;;;8.35;4.82;;;10.60;76.70;;;;;;5035985;28;20034;-77
2022/03/10 05:43:58;;;;;;;10.52;5.82;;;10.60;76.70;;;;;;5022129;28;20024;-77
2022/03/10 05:46:24;;;;;;;10.48;6.40;;;10.60;76.80;;;;;;5033637;28;20025;-77
2022/03/10 05:48:49;;;;;;;8.45;5.88;;;10.60;76.50;;;;;;5035969;28;20368;-76
2022/03/10 05:51:15;;;;;;;8.43;5.90;;;10.60;76.70;;;;;;5035967;28;20068;-77
2022/03/10 05:53:41;;;;;;;10.45;5.65;;;10.70;76.40;;;;;;5035647;28;20018;-77
2022/03/10 05:58:40;;;;;;;8.27;5.53;;;10.60;76.60;;;;;;5072201;28;20382;-77
2022/03/10 06:01:06;;;;;;;6.32;5.15;;;10.60;76.50;;;;;;5063852;28;20426;-76
2022/03/10 06:03:32;;;;;;;8.90;5.03;;;10.60;76.60;;;;;;5068711;28;20032;-77
2022/03/10 06:05:58;;;;;;;7.97;4.85;;;10.50;76.90;;;;;;5070910;28;20052;-77
2022/03/10 06:08:24;;;;;;;7.80;5.53;;;10.50;76.70;;;;;;5072043;28;20042;-78
2022/03/10 06:10:49;;;;;;;10.07;5.75;;;10.50;76.70;;;;;;5068324;28;20128;-77
2022/03/10 06:13:15;;;;;;;8.50;6.07;;;10.50;76.90;;;;;;5072039;28;20052;-74
2022/03/10 06:15:41;;;;;;;9.30;5.63;;;10.50;76.90;;;;;;5065441;28;20029;-77
2022/03/10 06:18:08;;;;;;;9.82;5.60;;;10.50;77.00;;;;;;5068697;28;20025;-75
2022/03/10 06:20:34;;;;;;;8.68;6.32;;;10.60;76.80;;;;;;5071632;28;20017;-77
2022/03/10 06:23:00;;;;;;;8.70;6.32;;;10.70;76.40;;;;;;5071734;28;20473;-76
2022/03/10 06:25:26;;;;;;;10.95;6.22;;;10.70;76.20;;;;;;5055119;28;20076;-76
2022/03/10 06:27:51;;;;;;;8.48;5.93;;;10.70;76.40;;;;;;5067542;28;20526;-75
2022/03/10 06:30:17;;;;;;;9.82;5.10;;;10.60;76.30;;;;;;5071414;28;20086;-77
2022/03/10 06:32:43;;;;;;;8.90;6.50;;;10.70;76.30;;;;;;5070895;28;20069;-77
2022/03/10 06:35:09;;;;;;;8.93;5.88;;;10.60;76.40;;;;;;5065999;28;20044;-76
2022/03/10 06:37:35;;;;;;;8.05;5.95;;;10.60;76.30;;;;;;5068813;28;20037;-76
2022/03/10 06:40:02;;;;;;;6.93;5.10;;;10.60;76.40;;;;;;5066099;28;20025;-78
2022/03/10 06:42:30;;;;;;;10.35;6.07;;;10.70;76.30;;;;;;5067571;28;20033;-75
2022/03/10 06:44:56;;;;;;;10.18;6.68;;;10.70;76.10;;;;;;5069101;28;20383;-75
2022/03/10 06:47:21;;;;;;;9.43;5.85;;;10.70;76.00;;;;;;5067466;28;20033;-75
2022/03/10 06:49:47;;;;;;;14.32;6.80;;;10.70;76.10;;;;;;5070647;28;20016;-75
2022/03/10 06:52:13;;;;;;;7.43;5.85;;;10.70;76.10;;;;;;5071043;28;20036;-76
2022/03/10 06:54:40;;;;;;;9.05;5.45;;;10.70;76.00;;;;;;5070598;28;20032;-76
2022/03/10 06:57:06;;;;;;;8.30;6.45;;;10.70;76.20;;;;;;5061918;28;20049;-76
2022/03/10 06:59:32;;;;;;;8.77;6.32;;;10.70;76.10;;;;;;5051224;28;20032;-76
2022/03/10 07:01:58;;;;;;;11.35;6.60;;;10.70;76.10;;;;;;5052437;28;20503;-76
2022/03/10 07:04:23;;;;;;;10.52;6.18;;;10.80;75.90;;;;;;5069284;28;20574;-75
2022/03/10 07:06:49;;;;;;;10.45;6.50;;;10.80;75.80;;;;;;5069596;28;20017;-75
2022/03/10 07:09:15;;;;;;;14.43;7.20;;;10.80;75.90;;;;;;5057674;28;20025;-76
2022/03/10 07:11:41;;;;;;;11.98;6.18;;;10.80;75.70;;;;;;5053998;28;20035;-76
2022/03/10 07:14:06;;;;;;;13.18;6.63;;;10.80;75.80;;;;;;5054766;28;20025;-76
2022/03/10 07:16:32;;;;;;;10.00;5.97;;;10.80;76.10;;;;;;5057444;28;20475;-76
2022/03/10 07:18:58;;;;;;;7.78;6.03;;;10.80;76.00;;;;;;5056342;28;20033;-76
2022/03/10 07:21:24;;;;;;;10.45;7.05;;;10.80;76.00;;;;;;5048210;28;20059;-76
2022/03/10 07:23:50;;;;;;;10.57;7.13;;;10.80;76.00;;;;;;5055372;28;20521;-75
2022/03/10 07:26:16;;;;;;;11.55;6.70;;;10.80;76.30;;;;;;5051255;28;20052;-76
2022/03/10 07:28:42;;;;;;;10.25;6.88;;;10.80;76.50;;;;;;5037505;28;20056;-76
2022/03/10 07:31:08;;;;;;;14.32;6.85;;;10.80;76.60;;;;;;5037157;28;20508;-75
2022/03/10 07:33:34;;;;;;;10.50;7.50;;;10.80;76.40;;;;;;5037215;28;20026;-76
2022/03/10 07:36:00;;;;;;;10.93;7.18;;;10.80;76.40;;;;;;5037407;28;20085;-75
2022/03/10 07:38:25;;;;;;;12.35;8.27;;;10.90;76.20;;;;;;5037069;28;20034;-76
2022/03/10 07:40:51;;;;;;;10.15;6.75;;;11.00;76.10;;;;;;5037349;28;20024;-76
2022/03/10 07:43:17;;;;;;;13.57;7.32;;;11.00;76.20;;;;;;5035815;28;20029;-76
2022/03/10 07:45:43;;;;;;;9.18;6.97;;;10.90;76.20;;;;;;5035362;28;20056;-76
2022/03/10 07:48:09;;;;;;;11.55;7.03;;;10.90;76.40;;;;;;5036975;28;20044;-76
2022/03/10 07:50:35;;;;;;;8.90;6.80;;;10.90;76.50;;;;;;5038595;28;20025;-76
2022/03/10 07:53:01;;;;;;;12.00;7.20;;;10.90;76.70;;;;;;5056878;28;20033;-76
2022/03/10 07:55:27;;;;;;;11.80;7.03;;;10.90;76.80;;;;;;5055230;28;20074;-76
2022/03/10 07:57:53;;;;;;;12.00;7.20;;;10.90;76.90;;;;;;5055419;28;20056;-76
2022/03/10 08:00:18;;;;;;;9.38;7.22;;;10.90;76.90;;;;;;5039993;28;20033;-76
2022/03/10 08:02:44;;;;;;;13.90;7.75;;;10.90;77.00;;;;;;5035457;28;20112;-75
2022/03/10 08:05:10;;;;;;;14.50;8.13;;;10.90;77.10;;;;;;5050296;28;20021;-76
2022/03/10 08:07:35;;;;;;;13.13;9.00;;;10.80;77.30;;;;;;5055360;28;20432;-75
2022/03/10 08:10:05;;;;;;;14.23;7.32;;;10.90;77.30;;;;;;5054833;28;20021;-76
2022/03/10 08:12:32;;;;;;;13.57;8.85;;;11.00;76.90;;;;;;5055213;28;20063;-76
2022/03/10 08:14:58;;;;;;;14.18;8.68;;;11.10;76.90;;;;;;5056190;28;20123;-77
2022/03/10 08:17:28;;;;;;;16.92;9.65;;;11.20;76.80;;;;;;5056528;28;20036;-76
2022/03/10 08:19:55;;;;;;;11.75;8.43;;;11.20;76.80;;;;;;5055489;28;20013;-76
2022/03/10 08:22:24;;;;;;;13.95;9.00;;;11.20;76.90;;;;;;5054414;28;20037;-76
2022/03/10 08:24:50;;;;;;;14.82;8.30;;;11.20;77.00;;;;;;5073705;28;20027;-76
2022/03/10 08:27:16;;;;;;;10.35;7.30;;;11.20;76.80;;;;;;5075711;28;20036;-76
2022/03/10 08:29:43;;;;;;;11.07;7.47;;;11.30;77.00;;;;;;5056750;28;20037;-77
2022/03/10 08:32:09;;;;;;;9.55;7.40;;;11.20;77.30;;;;;;5036664;28;20084;-77
2022/03/10 08:34:38;;;;;;;10.05;7.32;;;11.20;77.10;;;;;;5053494;28;20036;-77
2022/03/10 08:37:04;;;;;;;14.73;8.07;;;11.30;77.10;;;;;;5056130;28;20024;-77
2022/03/10 08:39:30;;;;;;;11.57;7.97;;;11.20;77.30;;;;;;5047090;28;20116;-77
2022/03/10 08:41:56;;;;;;;12.60;7.38;;;11.30;77.40;;;;;;5034464;28;20025;-77
2022/03/10 08:44:22;;;;;;;13.07;7.75;;;11.30;77.40;;;;;;5039973;28;20025;-77
2022/03/10 08:46:48;;;;;;;9.80;7.03;;;11.40;77.40;;;;;;5056079;28;20486;-77
2022/03/10 08:49:17;;;;;;;10.50;7.03;;;11.50;76.90;;;;;;5056056;28;20029;-77
2022/03/10 08:51:44;;;;;;;11.00;7.47;;;11.50;76.90;;;;;;5055845;28;20021;-77
2022/03/10 08:54:11;;;;;;;9.38;6.85;;;11.60;76.90;;;;;;5039174;28;20449;-77
2022/03/10 08:56:36;;;;;;;11.45;7.50;;;11.60;76.70;;;;;;5034146;28;20041;-78
2022/03/10 08:59:02;;;;;;;10.93;7.07;;;11.60;76.70;;;;;;5035755;28;20024;-77
2022/03/10 09:01:29;;;;;;;10.52;7.03;;;11.60;76.90;;;;;;5035752;28;20060;-77
2022/03/10 09:03:55;;;;;;;9.35;6.80;;;11.60;76.80;;;;;;5035797;28;20064;-77
2022/03/10 09:06:21;;;;;;;12.20;7.20;;;11.60;76.90;;;;;;5035712;28;20026;-77
2022/03/10 09:08:48;;;;;;;10.82;6.38;;;11.60;77.20;;;;;;5036014;28;20503;-77
2022/03/10 09:11:14;;;;;;;11.32;6.18;;;11.60;77.40;;;;;;5039325;28;20032;-77
2022/03/10 09:13:43;;;;;;;9.20;6.93;;;11.60;77.40;;;;;;5035741;28;20032;-77
2022/03/10 09:16:09;;;;;;;9.82;7.13;;;11.70;77.10;;;;;;5035536;28;20097;-77
2022/03/10 09:18:34;;;;;;;9.38;6.80;;;11.70;76.70;;;;;;5039839;28;20079;-77
2022/03/10 09:21:01;;;;;;;9.70;7.18;;;11.70;76.90;;;;;;5054199;28;20028;-77
2022/03/10 09:23:27;;;;;;;9.95;6.97;;;11.70;76.90;;;;;;5061544;28;20474;-77
2022/03/10 09:25:52;;;;;;;9.57;6.68;;;11.70;76.80;;;;;;5075277;28;20031;-77
2022/03/10 09:28:18;;;;;;;12.80;6.88;;;11.80;76.50;;;;;;5053803;28;20121;-77
2022/03/10 09:30:44;;;;;;;9.23;7.07;;;11.80;76.30;;;;;;5035447;28;20022;-77
2022/03/10 09:33:10;;;;;;;10.52;7.15;;;11.90;76.50;;;;;;5035306;28;20495;-77
2022/03/10 09:35:36;;;;;;;9.30;6.72;;;11.90;76.40;;;;;;5034774;28;20025;-77
2022/03/10 09:38:01;;;;;;;12.38;6.95;;;12.00;76.30;;;;;;5035519;28;20147;-77
2022/03/10 09:40:27;;;;;;;11.02;7.55;;;12.20;76.00;;;;;;5034792;28;20022;-77
2022/03/10 09:42:53;;;;;;;12.70;7.95;;;12.30;75.80;;;;;;5054261;28;20082;-77
2022/03/10 09:45:19;;;;;;;12.80;7.45;;;12.30;75.20;;;;;;5055497;28;20475;-77
2022/03/10 09:47:46;;;;;;;11.35;7.05;;;12.20;75.50;;;;;;5054022;28;20071;-77
2022/03/10 09:50:14;;;;;;;12.30;7.07;;;12.20;75.50;;;;;;5045150;28;20026;-77
2022/03/10 09:52:42;;;;;;;13.15;8.52;;;12.20;75.00;;;;;;5035368;28;20026;-78
2022/03/10 09:55:09;;;;;;;10.90;7.28;;;12.20;75.50;;;;;;5038556;28;20025;-77
2022/03/10 09:57:38;;;;;;;12.77;7.18;;;12.20;75.60;;;;;;5054762;28;20136;-77
2022/03/10 10:00:04;;;;;;;14.10;7.20;;;12.10;75.60;;;;;;5054922;28;20063;-77
2022/03/10 10:02:30;;;;;;;11.93;7.53;;;12.00;75.90;;;;;;5046381;28;20029;-77
2022/03/10 10:04:56;;;;;;;12.90;8.07;;;12.00;76.10;;;;;;5035040;28;20073;-77
2022/03/10 10:07:26;;;;;;;12.27;7.78;;;12.00;75.90;;;;;;5034871;28;20083;-77
2022/03/10 10:09:57;;;;;;;13.43;7.00;;;12.10;76.10;;;;;;5034933;28;20110;-76
2022/03/10 10:12:28;;;;;;;11.82;7.38;;;12.10;76.10;;;;;;5049742;28;20079;-77
2022/03/10 10:14:55;;;;;;;9.35;6.25;;;12.20;76.10;;;;;;5045770;28;20530;-77
2022/03/10 10:17:28;;;;;;;13.38;6.65;;;12.10;76.10;;;;;;5034774;28;20064;-77
2022/03/10 10:19:58;;;;;;;8.45;5.78;;;12.00;76.40;;;;;;5034693;28;20087;-77
2022/03/10 10:22:25;;;;;;;10.75;6.68;;;12.00;76.70;;;;;;5033693;28;20076;-77
2022/03/10 10:24:57;;;;;;;14.20;7.30;;;11.90;77.00;;;;;;5069115;28;20028;-77
2022/03/10 10:27:29;;;;;;;11.85;6.85;;;11.90;77.10;;;;;;5049812;28;20033;-77
2022/03/10 10:29:58;;;;;;;12.40;7.53;;;11.90;77.30;;;;;;5034864;28;20029;-77
2022/03/10 10:32:36;;;;;;;10.93;7.28;;;11.90;77.60;;;;;;5049993;28;20030;-77
2022/03/10 10:35:09;;;;;;;13.18;7.07;;;12.00;77.50;;;;;;5048975;28;20029;-77
2022/03/10 10:37:37;;;;;;;12.43;7.47;;;12.10;77.60;;;;;;5035005;28;20364;-77
2022/03/10 10:40:04;;;;;;;12.02;6.85;;;12.10;77.70;;;;;;5034872;28;20040;-77
2022/03/10 10:42:35;;;;;;;14.80;7.70;;;12.10;77.80;;;;;;5034638;28;20025;-77
2022/03/10 10:45:04;;;;;;;13.43;6.70;;;12.20;77.90;;;;;;5037522;28;20033;-77
2022/03/10 10:47:30;;;;;;;13.82;7.72;;;12.10;77.90;;;;;;5036895;28;20033;-77
2022/03/10 10:50:06;;;;;;;11.20;7.32;;;12.20;78.00;;;;;;5042647;28;20025;-77
2022/03/10 10:52:41;;;;;;;11.73;6.65;;;12.20;77.90;;;;;;5058458;28;20100;-77
2022/03/10 10:55:10;;;;;;;14.43;7.88;;;12.20;78.10;;;;;;5041553;28;20033;-77
2022/03/10 10:57:37;;;;;;;15.20;8.10;;;12.30;78.10;;;;;;5036573;28;20048;-77
2022/03/10 11:00:11;;;;;;;15.48;8.70;;;12.30;78.10;;;;;;5038172;28;20030;-77
2022/03/10 11:02:41;;;;;;;12.30;7.25;;;12.20;78.10;;;;;;5038097;28;20030;-77
2022/03/10 11:05:14;;;;;;;14.23;7.70;;;12.30;77.90;;;;;;5037986;28;20043;-77
2022/03/10 11:07:41;;;;;;;16.13;8.30;;;12.50;77.90;;;;;;5036830;28;20029;-77
2022/03/10 11:10:09;;;;;;;13.55;8.40;;;12.50;77.80;;;;;;5038226;28;20080;-77
2022/03/10 11:12:39;;;;;;;12.68;8.05;;;12.40;77.80;;;;;;5054946;28;20139;-77
2022/03/10 11:15:07;;;;;;;15.10;8.40;;;12.50;77.80;;;;;;5057949;28;20167;-77
2022/03/10 11:17:34;;;;;;;15.50;7.65;;;12.50;78.00;;;;;;5057687;28;20391;-77
2022/03/10 11:20:02;;;;;;;12.65;8.00;;;12.50;78.10;;;;;;5037858;28;20048;-77
2022/03/10 11:23:00;;;;;;;14.15;7.78;;;12.40;78.40;;;;;;5037660;28;20051;-77
2022/03/10 11:25:44;;;;;;;9.95;6.68;;;12.30;79.10;;;;;;5053205;28;20457;-77
2022/03/10 11:28:25;;;;;;;12.60;7.88;;;12.20;79.90;;;;;;5057748;28;20053;-77
2022/03/10 11:30:55;;;;;;;17.77;9.60;;;12.20;80.60;;;;;;5057592;28;20032;-77
2022/03/10 11:33:32;;;;;;;15.15;7.97;;;12.20;80.90;;;;;;5040573;28;20037;-77
2022/03/10 11:35:58;;;;;;;13.23;7.72;;;12.30;80.90;;;;;;5037466;28;20037;-77
2022/03/10 11:38:54;;;;;;;16.17;8.40;;;12.30;80.90;;;;;;5035985;28;20427;-77
2022/03/10 11:41:24;;;;;;;15.10;7.95;;;12.20;81.10;;;;;;5034711;28;20072;-77
2022/03/10 11:44:01;;;;;;;14.07;7.83;;;12.30;80.90;;;;;;5037520;28;20094;-77
2022/03/10 11:46:31;;;;;;;17.63;8.85;;;12.30;80.70;;;;;;5045360;28;20017;-77
2022/03/10 11:49:11;;;;;;;14.70;7.38;;;12.30;80.70;;;;;;5057350;28;20021;-77
2022/03/10 11:51:46;;;;;;;12.95;8.32;;;12.30;80.70;;;;;;5046287;28;20104;-77
2022/03/10 11:54:17;;;;;;;13.23;8.25;;;12.40;80.90;;;;;;5037316;28;20053;-77
2022/03/10 11:56:49;;;;;;;13.98;8.80;;;12.40;80.80;;;;;;5036853;28;20045;-77
2022/03/10 11:59:37;;;;;;;16.20;8.52;;;12.40;80.70;;;;;;5037119;28;20022;-77
2022/03/10 12:02:04;;;;;;;20.52;10.30;;;12.50;80.40;;;;;;5036522;28;20800;-77
2022/03/10 12:04:40;;;;;;;14.65;8.77;;;12.60;80.30;;;;;;5068957;28;20446;-77
2022/03/10 12:07:10;;;;;;;16.23;9.13;;;12.80;79.60;;;;;;5036769;28;20083;-77
2022/03/10 12:09:39;;;;;;;18.85;8.80;;;12.90;79.50;;;;;;5035560;28;20115;-78
2022/03/10 12:12:12;;;;;;;13.60;9.05;;;13.10;79.00;;;;;;5043784;28;20102;-77
2022/03/10 12:14:37;;;;;;;16.27;8.88;;;13.10;78.00;;;;;;5036826;28;20082;-77
2022/03/10 12:17:03;;;;;;;18.48;8.90;;;13.10;78.20;;;;;;5036666;28;20089;-77
2022/03/10 12:20:06;;;;;;;13.68;8.30;;;13.10;78.10;;;;;;5036166;28;20152;-77
2022/03/10 12:22:35;;;;;;;14.00;7.90;;;13.00;78.20;;;;;;5035249;28;20017;-78
2022/03/10 12:25:21;;;;;;;15.57;8.63;;;13.00;78.50;;;;;;5073111;28;20534;-77
2022/03/10 12:27:51;;;;;;;19.42;8.40;;;13.00;78.10;;;;;;5057620;28;20029;-77
2022/03/10 12:30:22;;;;;;;13.98;7.03;;;13.00;78.30;;;;;;5036452;28;20036;-77
2022/03/10 12:32:52;;;;;;;13.52;7.20;;;13.00;77.80;;;;;;5036243;28;20060;-77
2022/03/10 12:35:38;;;;;;;19.08;8.80;;;13.00;77.90;;;;;;5035117;28;20029;-77
2022/03/10 12:38:05;;;;;;;14.57;7.68;;;12.90;78.30;;;;;;5035344;28;20127;-77
2022/03/10 12:40:33;;;;;;;10.35;7.18;;;12.90;78.30;;;;;;5055966;28;20108;-77
2022/03/10 12:43:04;;;;;;;8.93;6.20;;;12.80;78.90;;;;;;5047627;28;20551;-77
2022/03/10 12:45:30;;;;;;;9.77;5.70;;;12.80;79.60;;;;;;5036309;28;20032;-77
2022/03/10 12:48:18;;;;;;;12.75;6.95;;;13.00;79.60;;;;;;5035969;28;20034;-77
2022/03/10 12:50:47;;;;;;;10.18;5.80;;;13.30;79.20;;;;;;5035976;28;20434;-77
2022/03/10 12:53:14;;;;;;;7.40;5.43;;;13.40;78.70;;;;;;5038343;28;20029;-77